createdAt,value
2022-09-27T00:01:16.112Z,11.10
2022-09-27T00:03:43.011Z,11.10
2022-09-27T00:06:15.506Z,11.10
2022-09-27T00:08:43.207Z,11.10
2022-09-27T00:11:22.627Z,11.20
2022-09-27T00:13:49.233Z,11.10
2022-09-27T00:16:15.951Z,11.10
2022-09-27T00:18:42.800Z,11.10
2022-09-27T00:21:12.220Z,11.10
2022-09-27T00:23:39.891Z,11.10
2022-09-27T00:26:08.586Z,11.00
2022-09-27T00:28:35.351Z,11.00
2022-09-27T00:31:02.851Z,10.90
2022-09-27T00:33:29.594Z,11.00
2022-09-27T00:36:03.109Z,10.90
2022-09-27T00:38:29.716Z,10.90
2022-09-27T00:40:56.405Z,10.90
2022-09-27T00:43:24.155Z,10.90
2022-09-27T00:45:56.043Z,10.90
2022-09-27T00:48:27.798Z,10.90
2022-09-27T00:50:58.947Z,10.90
2022-09-27T00:53:39.216Z,10.90
2022-09-27T00:56:16.603Z,10.80
2022-09-27T00:58:49.868Z,10.80
2022-09-27T01:01:17.401Z,10.80
2022-09-27T01:03:57.720Z,10.80
2022-09-27T01:06:24.824Z,10.80
2022-09-27T01:08:51.457Z,10.80
2022-09-27T01:11:36.766Z,10.80
2022-09-27T01:14:12.186Z,10.80
2022-09-27T01:16:53.855Z,10.80
2022-09-27T01:19:44.848Z,10.80
2022-09-27T01:22:23.414Z,10.80
2022-09-27T01:25:22.799Z,10.80
2022-09-27T01:28:11.291Z,10.80
2022-09-27T01:30:47.171Z,10.70
2022-09-27T01:33:32.439Z,10.70
2022-09-27T01:35:59.097Z,10.60
2022-09-27T01:38:39.832Z,10.50
2022-09-27T01:41:29.029Z,10.60
2022-09-27T01:44:00.208Z,10.50
2022-09-27T01:46:58.897Z,10.40
2022-09-27T01:49:47.269Z,10.30
2022-09-27T01:52:18.856Z,10.20
2022-09-27T01:54:50.740Z,10.20
2022-09-27T01:57:22.293Z,10.10
2022-09-27T02:00:15.422Z,10.10
2022-09-27T02:02:52.753Z,10.00
2022-09-27T02:05:20.912Z,9.90
2022-09-27T02:07:58.069Z,9.80
2022-09-27T02:10:29.104Z,9.80
2022-09-27T02:13:10.909Z,9.80
2022-09-27T02:16:05.360Z,9.80
2022-09-27T02:18:39.583Z,9.70
2022-09-27T02:21:11.682Z,9.70
2022-09-27T02:23:50.212Z,9.70
2022-09-27T02:26:27.707Z,9.70
2022-09-27T02:29:23.742Z,9.70
2022-09-27T02:31:51.033Z,9.70
2022-09-27T02:34:24.068Z,9.70
2022-09-27T02:36:53.397Z,9.70
2022-09-27T02:39:21.267Z,9.70
2022-09-27T02:41:47.987Z,9.60
2022-09-27T02:44:17.473Z,9.60
2022-09-27T02:46:47.155Z,9.60
2022-09-27T02:49:35.549Z,9.60
2022-09-27T02:52:28.051Z,9.60
2022-09-27T02:55:16.294Z,9.50
2022-09-27T02:58:13.652Z,9.50
2022-09-27T03:01:13.846Z,9.60
2022-09-27T03:03:57.057Z,9.60
2022-09-27T03:06:24.347Z,9.60
2022-09-27T03:08:51.350Z,9.50
2022-09-27T03:11:17.979Z,9.50
2022-09-27T03:14:01.738Z,9.50
2022-09-27T03:16:31.647Z,9.50
2022-09-27T03:18:58.508Z,9.50
2022-09-27T03:21:25.131Z,9.50
2022-09-27T03:23:51.747Z,9.50
2022-09-27T03:26:18.431Z,9.50
2022-09-27T03:28:45.053Z,9.60
2022-09-27T03:31:11.740Z,9.60
2022-09-27T03:33:38.470Z,9.60
2022-09-27T03:36:05.308Z,9.60
2022-09-27T03:38:31.921Z,9.60
2022-09-27T03:40:59.050Z,9.60
2022-09-27T03:43:26.095Z,9.60
2022-09-27T03:45:52.987Z,9.60
2022-09-27T03:48:20.853Z,9.60
2022-09-27T03:50:51.656Z,9.60
2022-09-27T03:53:18.426Z,9.70
2022-09-27T03:55:47.964Z,9.60
2022-09-27T03:58:14.915Z,9.60
2022-09-27T04:00:42.849Z,9.60
2022-09-27T04:03:09.606Z,9.60
2022-09-27T04:05:36.418Z,9.60
2022-09-27T04:08:03.284Z,9.70
2022-09-27T04:10:29.924Z,9.60
2022-09-27T04:12:56.566Z,9.70
2022-09-27T04:15:23.529Z,9.60
2022-09-27T04:17:50.902Z,9.60
2022-09-27T04:20:18.721Z,9.60
2022-09-27T04:22:45.727Z,9.60
2022-09-27T04:25:12.607Z,9.60
2022-09-27T04:27:45.415Z,9.60
2022-09-27T04:30:13.155Z,9.60
2022-09-27T04:32:44.257Z,9.60
2022-09-27T04:35:31.216Z,9.70
2022-09-27T04:37:58.297Z,9.70
2022-09-27T04:40:25.146Z,9.60
2022-09-27T04:42:52.397Z,9.60
2022-09-27T04:45:19.902Z,9.60
2022-09-27T04:47:48.637Z,9.60
2022-09-27T04:50:17.377Z,9.60
2022-09-27T04:52:44.251Z,9.60
2022-09-27T04:55:11.514Z,9.50
2022-09-27T04:57:38.131Z,9.60
2022-09-27T05:00:05.374Z,9.60
2022-09-27T05:02:32.094Z,9.60
2022-09-27T05:04:59.264Z,9.60
2022-09-27T05:07:26.896Z,9.60
2022-09-27T05:09:53.540Z,9.60
2022-09-27T05:12:20.802Z,9.60
2022-09-27T05:14:47.619Z,9.60
2022-09-27T05:17:14.503Z,9.60
2022-09-27T05:19:41.121Z,9.70
2022-09-27T05:22:07.763Z,9.70
2022-09-27T05:24:35.444Z,9.70
2022-09-27T05:27:02.657Z,9.60
2022-09-27T05:29:29.842Z,9.60
2022-09-27T05:31:56.478Z,9.70
2022-09-27T05:34:23.150Z,9.70
2022-09-27T05:36:50.115Z,9.70
2022-09-27T05:39:17.392Z,9.70
2022-09-27T05:41:44.729Z,9.80
2022-09-27T05:44:13.186Z,9.80
2022-09-27T05:46:40.002Z,9.70
2022-09-27T05:49:06.744Z,9.60
2022-09-27T05:51:33.628Z,9.60
2022-09-27T05:54:00.309Z,9.50
2022-09-27T05:56:26.988Z,9.50
2022-09-27T05:58:53.791Z,9.50
2022-09-27T06:01:20.617Z,9.50
2022-09-27T06:03:47.694Z,9.50
2022-09-27T06:06:14.434Z,9.50
2022-09-27T06:08:41.554Z,9.40
2022-09-27T06:11:12.344Z,9.40
2022-09-27T06:13:39.593Z,9.40
2022-09-27T06:16:07.779Z,9.40
2022-09-27T06:18:34.482Z,9.40
2022-09-27T06:21:02.144Z,9.40
2022-09-27T06:23:29.360Z,9.40
2022-09-27T06:25:56.036Z,9.40
2022-09-27T06:28:23.629Z,9.50
2022-09-27T06:30:50.816Z,9.60
2022-09-27T06:33:20.047Z,9.60
2022-09-27T06:35:49.076Z,9.60
2022-09-27T06:38:21.110Z,9.70
2022-09-27T06:40:48.383Z,9.70
2022-09-27T06:43:18.042Z,9.70
2022-09-27T06:45:44.762Z,9.70
2022-09-27T06:48:12.939Z,9.80
2022-09-27T06:50:41.379Z,9.90
2022-09-27T06:53:10.583Z,10.00
2022-09-27T06:55:37.770Z,10.00
2022-09-27T06:58:23.497Z,10.00
2022-09-27T07:00:51.811Z,10.20
2022-09-27T07:03:19.462Z,10.30
2022-09-27T07:05:57.154Z,10.30
2022-09-27T07:08:26.409Z,10.40
2022-09-27T07:10:55.431Z,10.40
2022-09-27T07:13:22.602Z,10.30
2022-09-27T07:15:49.450Z,10.40
2022-09-27T07:18:16.072Z,10.50
2022-09-27T07:20:42.717Z,10.50
2022-09-27T07:23:10.767Z,10.40
2022-09-27T07:25:37.428Z,10.40
2022-09-27T07:28:09.966Z,10.50
2022-09-27T07:30:37.918Z,10.50
2022-09-27T07:33:05.985Z,10.60
2022-09-27T07:35:32.883Z,10.60
2022-09-27T07:37:59.604Z,10.70
2022-09-27T07:40:27.153Z,10.70
2022-09-27T07:42:58.325Z,10.60
2022-09-27T07:45:26.192Z,10.70
2022-09-27T07:47:52.935Z,10.70
2022-09-27T07:50:19.955Z,10.70
2022-09-27T07:52:50.992Z,10.70
2022-09-27T07:55:18.978Z,10.70
2022-09-27T08:12:34.109Z,10.90
2022-09-27T08:15:01.796Z,9.70
2022-09-27T08:17:29.270Z,9.10
2022-09-27T08:19:56.889Z,8.80
2022-09-27T08:22:23.923Z,8.60
2022-09-27T08:52:34.108Z,8.50
2022-09-27T08:55:06.205Z,9.10
2022-09-27T08:57:32.860Z,9.20
2022-09-27T09:00:11.333Z,9.40
2022-09-27T09:02:38.487Z,9.40
2022-09-27T09:05:13.212Z,9.40
2022-09-27T09:08:03.092Z,9.40
2022-09-27T09:11:07.431Z,9.40
2022-09-27T11:31:16.345Z,9.50
2022-09-27T11:33:55.935Z,10.00
2022-09-27T11:36:59.042Z,10.00
2022-09-27T11:39:34.529Z,9.90
2022-09-27T11:42:14.228Z,9.90
2022-09-27T11:44:55.853Z,10.00
2022-09-27T11:47:57.136Z,10.00
2022-09-27T11:50:37.079Z,10.20
2022-09-27T11:53:41.071Z,10.60
2022-09-27T11:56:46.248Z,10.70
2022-09-27T11:59:29.377Z,10.80
2022-09-27T12:02:24.298Z,10.70
2022-09-27T12:05:08.254Z,10.50
2022-09-27T12:08:16.114Z,10.20
2022-09-27T12:10:49.052Z,9.80
2022-09-27T12:13:20.930Z,9.60
2022-09-27T12:15:49.556Z,9.60
2022-09-27T12:18:40.936Z,9.20
2022-09-27T12:21:10.171Z,8.70
2022-09-27T12:23:43.925Z,8.50
2022-09-27T12:26:19.667Z,8.30
2022-09-27T12:29:09.315Z,8.30
2022-09-27T12:31:52.831Z,8.50
2022-09-27T12:34:42.541Z,8.60
2022-09-27T12:37:41.308Z,8.80
2022-09-27T12:40:35.075Z,9.20
2022-09-27T12:43:12.546Z,9.60
2022-09-27T12:46:10.587Z,9.70
2022-09-27T12:48:55.757Z,9.80
2022-09-27T12:51:24.030Z,9.90
2022-09-27T12:54:20.218Z,10.00
2022-09-27T12:57:18.411Z,10.20
2022-09-27T13:00:00.054Z,10.40
2022-09-27T13:03:14.199Z,10.40
2022-09-27T13:05:47.143Z,10.20
2022-09-27T13:08:43.973Z,10.10
2022-09-27T13:43:09.977Z,10.20
2022-09-27T13:45:55.846Z,12.20
2022-09-27T13:48:43.623Z,11.90
2022-09-27T13:51:42.350Z,11.90
2022-09-27T13:54:33.847Z,11.60
2022-09-27T13:57:02.070Z,11.50
2022-09-27T13:59:43.974Z,11.40
2022-09-27T14:02:25.472Z,11.40
2022-09-27T14:04:53.188Z,11.40
2022-09-27T14:07:25.629Z,11.40
2022-09-27T14:09:54.858Z,11.30
2022-09-27T14:12:27.123Z,11.30
2022-09-27T14:14:55.711Z,11.40
2022-09-27T14:17:22.907Z,11.30
2022-09-27T14:19:51.248Z,11.20
2022-09-27T14:22:21.359Z,11.20
2022-09-27T14:37:25.997Z,11.40
2022-09-27T14:40:06.212Z,13.80
2022-09-27T14:42:36.654Z,12.90
2022-09-27T14:45:24.848Z,12.20
2022-09-27T14:47:52.202Z,11.80
2022-09-27T14:50:24.366Z,11.50
2022-09-27T14:52:56.104Z,11.40
2022-09-27T14:55:25.562Z,11.30
2022-09-27T14:57:58.896Z,11.20
2022-09-27T15:00:31.971Z,11.10
2022-09-27T15:03:05.533Z,11.10
2022-09-27T15:05:34.428Z,11.00
2022-09-27T15:08:05.679Z,11.00
2022-09-27T15:10:35.519Z,11.10
2022-09-27T15:13:05.083Z,11.10
2022-09-27T15:15:35.340Z,11.10
2022-09-27T15:18:03.673Z,11.10
2022-09-27T15:20:35.122Z,11.00
2022-09-27T15:23:05.806Z,10.90
2022-09-27T15:25:42.135Z,10.90
2022-09-27T15:28:11.430Z,10.90
2022-09-27T15:30:44.445Z,11.00
2022-09-27T15:33:34.590Z,11.20
2022-09-27T15:36:05.071Z,11.90
2022-09-27T15:38:33.013Z,12.00
2022-09-27T15:41:02.408Z,12.50
2022-09-27T15:43:52.594Z,12.80
2022-09-27T15:49:17.999Z,12.20
2022-09-27T15:51:50.327Z,12.00
2022-09-27T15:54:21.486Z,11.60
2022-09-27T15:56:56.690Z,11.40
2022-09-27T15:59:27.819Z,11.20
2022-09-27T16:02:01.910Z,11.10
2022-09-27T16:04:31.678Z,11.10
2022-09-27T16:07:01.186Z,10.90
2022-09-27T16:09:28.068Z,10.60
2022-09-27T16:11:54.740Z,10.10
2022-09-27T16:14:21.467Z,9.60
2022-09-27T16:16:52.032Z,9.20
2022-09-27T16:19:18.970Z,9.00
2022-09-27T16:21:47.651Z,8.80
2022-09-27T16:24:14.716Z,8.70
2022-09-27T16:26:41.441Z,8.80
2022-09-27T16:29:13.151Z,8.80
2022-09-27T16:31:40.917Z,8.80
2022-09-27T16:34:09.695Z,8.80
2022-09-27T16:36:37.386Z,8.80
2022-09-27T16:39:05.951Z,8.90
2022-09-27T16:41:37.021Z,8.90
2022-09-27T16:44:12.103Z,9.00
2022-09-27T16:46:42.764Z,9.10
2022-09-27T16:49:29.445Z,9.10
2022-09-27T16:52:02.388Z,9.20
2022-09-27T16:54:29.891Z,9.20
2022-09-27T16:56:57.981Z,9.30
2022-09-27T16:59:27.655Z,9.20
2022-09-27T17:01:57.707Z,9.30
2022-09-27T17:04:25.633Z,9.20
2022-09-27T17:06:52.218Z,9.20
2022-09-27T17:09:19.655Z,9.20
2022-09-27T17:11:46.228Z,9.10
2022-09-27T17:14:17.277Z,9.10
2022-09-27T17:16:45.605Z,9.00
2022-09-27T17:19:13.042Z,9.00
2022-09-27T17:21:40.570Z,8.90
2022-09-27T17:24:07.524Z,8.90
2022-09-27T17:26:34.084Z,8.90
2022-09-27T17:29:01.559Z,8.80
2022-09-27T17:31:31.420Z,8.70
2022-09-27T17:33:59.858Z,8.60
2022-09-27T17:36:29.717Z,8.60
2022-09-27T17:38:58.924Z,8.60
2022-09-27T17:41:26.821Z,8.60
2022-09-27T17:43:56.331Z,8.60
2022-09-27T17:46:26.255Z,8.50
2022-09-27T17:49:11.933Z,8.50
2022-09-27T17:51:40.578Z,8.50
2022-09-27T17:54:08.891Z,8.50
2022-09-27T17:56:39.972Z,8.50
2022-09-27T17:59:07.938Z,8.50
2022-09-27T18:01:34.635Z,8.50
2022-09-27T18:04:01.697Z,8.50
2022-09-27T18:06:28.790Z,8.50
2022-09-27T18:08:55.999Z,8.50
2022-09-27T18:11:28.426Z,8.50
2022-09-27T18:14:02.244Z,8.50
2022-09-27T18:16:32.014Z,8.50
2022-09-27T18:19:00.309Z,8.50
2022-09-27T18:21:27.610Z,8.40
2022-09-27T18:23:59.474Z,8.40
2022-09-27T18:26:28.871Z,8.40
2022-09-27T18:29:00.201Z,8.40
2022-09-27T18:31:27.007Z,8.40
2022-09-27T18:33:53.748Z,8.30
2022-09-27T18:36:23.081Z,8.40
2022-09-27T18:39:01.254Z,8.40
2022-09-27T18:41:30.916Z,8.40
2022-09-27T18:44:00.791Z,8.40
2022-09-27T18:46:36.206Z,8.40
2022-09-27T18:49:09.236Z,8.40
2022-09-27T18:51:37.711Z,8.50
2022-09-27T18:54:13.618Z,8.50
2022-09-27T18:56:41.055Z,8.50
2022-09-27T18:59:09.204Z,8.50
2022-09-27T19:01:43.213Z,8.50
2022-09-27T19:04:11.424Z,8.50
2022-09-27T19:06:38.861Z,8.50
2022-09-27T19:09:07.106Z,8.50
2022-09-27T19:11:34.615Z,8.50
2022-09-27T19:14:01.962Z,8.50
2022-09-27T19:16:28.970Z,8.60
2022-09-27T19:18:55.733Z,8.50
2022-09-27T19:21:25.123Z,8.50
2022-09-27T19:23:52.526Z,8.50
2022-09-27T19:26:21.424Z,8.50
2022-09-27T19:28:48.691Z,8.50
2022-09-27T19:31:17.865Z,8.50
2022-09-27T19:33:44.738Z,8.50
2022-09-27T19:36:13.451Z,8.50
2022-09-27T19:38:40.431Z,8.50
2022-09-27T19:41:12.186Z,8.50
2022-09-27T19:43:39.112Z,8.50
2022-09-27T19:46:17.657Z,8.50
2022-09-27T19:48:45.675Z,8.60
2022-09-27T19:51:17.650Z,8.60
2022-09-27T19:53:44.495Z,8.60
2022-09-27T19:56:12.338Z,8.60
2022-09-27T19:58:40.258Z,8.60
2022-09-27T20:01:11.343Z,8.60
2022-09-27T20:03:40.491Z,8.60
2022-09-27T20:06:10.361Z,8.70
2022-09-27T20:08:37.249Z,8.60
2022-09-27T20:11:06.897Z,8.60
2022-09-27T20:13:35.515Z,8.60
2022-09-27T20:16:14.030Z,8.60
2022-09-27T20:18:46.095Z,8.60
2022-09-27T20:21:14.345Z,8.60
2022-09-27T20:23:41.212Z,8.60
2022-09-27T20:26:15.770Z,8.60
2022-09-27T20:28:44.511Z,8.60
2022-09-27T20:31:13.163Z,8.70
2022-09-27T20:33:43.570Z,8.70
2022-09-27T20:36:14.750Z,8.70
2022-09-27T20:38:43.237Z,8.70
2022-09-27T20:41:11.292Z,8.70
2022-09-27T20:43:38.778Z,8.70
2022-09-27T20:46:12.249Z,8.70
2022-09-27T20:48:39.495Z,8.70
2022-09-27T20:51:07.169Z,8.70
2022-09-27T20:53:34.566Z,8.70
2022-09-27T20:56:02.749Z,8.60
2022-09-27T20:58:30.912Z,8.70
2022-09-27T21:01:03.769Z,8.70
2022-09-27T21:03:30.340Z,8.70
2022-09-27T21:05:57.930Z,8.70
2022-09-27T21:08:24.856Z,8.70
2022-09-27T21:10:53.729Z,8.60
2022-09-27T21:13:21.174Z,8.60
2022-09-27T21:15:48.035Z,8.60
2022-09-27T21:18:14.713Z,8.70
2022-09-27T21:20:41.334Z,8.70
2022-09-27T21:23:07.949Z,8.60
2022-09-27T21:25:34.527Z,8.60
2022-09-27T21:28:04.063Z,8.60
2022-09-27T21:30:31.309Z,8.60
2022-09-27T21:32:57.895Z,8.50
2022-09-27T21:35:24.800Z,8.50
2022-09-27T21:37:51.372Z,8.50
2022-09-27T21:40:18.022Z,8.50
2022-09-27T21:42:44.713Z,8.50
2022-09-27T21:45:11.680Z,8.60
2022-09-27T21:47:38.299Z,8.60
2022-09-27T21:50:05.210Z,8.60
2022-09-27T21:52:31.781Z,8.60
2022-09-27T21:54:58.329Z,8.60
2022-09-27T21:57:24.901Z,8.60
2022-09-27T21:59:51.495Z,8.60
2022-09-27T22:02:19.508Z,8.60
2022-09-27T22:04:48.857Z,8.60
2022-09-27T22:07:15.964Z,8.60
2022-09-27T22:09:42.664Z,8.40
2022-09-27T22:12:09.614Z,7.80
2022-09-27T22:14:36.287Z,7.50
2022-09-27T22:17:02.880Z,7.30
2022-09-27T22:19:29.552Z,7.30
2022-09-27T22:21:56.268Z,7.20
2022-09-27T22:24:23.549Z,7.10
2022-09-27T22:26:52.765Z,7.20
2022-09-27T22:29:20.084Z,7.20
2022-09-27T22:31:47.062Z,7.20
2022-09-27T22:34:27.803Z,7.20
2022-09-27T22:36:56.513Z,7.10
2022-09-27T22:39:23.451Z,7.20
2022-09-27T22:41:50.334Z,7.20
2022-09-27T22:44:17.165Z,7.20
2022-09-27T22:46:44.462Z,7.30
2022-09-27T22:49:11.156Z,7.40
2022-09-27T22:51:37.762Z,7.50
2022-09-27T22:54:04.663Z,7.50
2022-09-27T22:56:31.239Z,7.50
2022-09-27T22:58:57.850Z,7.60
2022-09-27T23:01:24.884Z,7.60
2022-09-27T23:03:53.464Z,7.70
2022-09-27T23:06:21.607Z,7.70
2022-09-27T23:08:48.681Z,7.70
2022-09-27T23:11:20.207Z,7.80
2022-09-27T23:13:48.138Z,7.80
2022-09-27T23:16:20.639Z,7.90
2022-09-27T23:18:47.733Z,7.90
2022-09-27T23:21:16.138Z,7.90
2022-09-27T23:23:47.194Z,8.00
2022-09-27T23:26:15.854Z,8.10
2022-09-27T23:28:43.061Z,8.10
2022-09-27T23:31:14.669Z,7.90
2022-09-27T23:36:12.749Z,8.00
2022-09-27T23:38:40.928Z,8.00
2022-09-27T23:41:08.306Z,8.00
2022-09-27T23:43:36.026Z,8.00
2022-09-27T23:46:04.516Z,8.10
2022-09-27T23:48:31.318Z,8.10
2022-09-27T23:50:57.905Z,8.10
2022-09-27T23:53:24.827Z,8.10
2022-09-27T23:56:10.052Z,8.10
2022-09-27T23:58:41.787Z,8.10
